createdAt,value
2019-02-22T00:00:53.999Z,21.87
2019-02-22T00:05:55.723Z,21.13
2019-02-22T00:10:57.286Z,22.40
2019-02-22T00:15:58.840Z,20.47
2019-02-22T00:21:00.525Z,20.43
2019-02-22T00:26:02.105Z,20.13
2019-02-22T00:31:03.686Z,18.53
2019-02-22T00:36:05.321Z,19.10
2019-02-22T00:41:07.154Z,18.90
2019-02-22T00:46:08.716Z,18.87
2019-02-22T00:51:10.311Z,16.97
2019-02-22T00:56:11.897Z,15.90
2019-02-22T01:01:13.457Z,16.17
2019-02-22T01:06:15.006Z,15.57
2019-02-22T01:11:16.634Z,15.10
2019-02-22T01:16:18.234Z,15.57
2019-02-22T01:21:19.874Z,15.97
2019-02-22T01:26:21.504Z,16.40
2019-02-22T01:31:23.187Z,17.83
2019-02-22T01:36:24.734Z,17.00
2019-02-22T01:41:26.293Z,16.50
2019-02-22T01:46:27.890Z,16.77
2019-02-22T01:51:29.473Z,16.93
2019-02-22T01:56:31.050Z,16.10
2019-02-22T02:01:32.727Z,15.53
2019-02-22T02:06:34.303Z,15.37
2019-02-22T02:11:35.866Z,16.13
2019-02-22T02:16:37.573Z,15.53
2019-02-22T02:21:39.143Z,15.63
2019-02-22T02:26:40.875Z,16.10
2019-02-22T02:31:42.422Z,16.17
2019-02-22T02:36:43.981Z,16.47
2019-02-22T02:41:45.546Z,16.20
2019-02-22T02:46:47.143Z,15.40
2019-02-22T02:51:48.719Z,14.80
2019-02-22T02:56:50.402Z,15.73
2019-02-22T03:01:52.091Z,15.50
2019-02-22T03:07:13.593Z,14.17
2019-02-22T03:12:15.162Z,15.63
2019-02-22T03:17:16.839Z,14.40
2019-02-22T03:22:18.406Z,14.57
2019-02-22T03:27:19.982Z,14.17
2019-02-22T03:32:21.551Z,13.67
2019-02-22T03:37:23.133Z,12.30
2019-02-22T03:42:24.694Z,12.97
2019-02-22T03:47:26.298Z,13.07
2019-02-22T03:52:37.721Z,12.03
2019-02-22T03:57:39.386Z,11.97
2019-02-22T04:02:40.982Z,12.53
2019-02-22T04:07:42.649Z,11.53
2019-02-22T04:12:44.243Z,13.57
2019-02-22T04:17:45.832Z,12.60
2019-02-22T04:22:47.429Z,11.13
2019-02-22T04:27:49.033Z,10.03
2019-02-22T04:32:50.698Z,9.77
2019-02-22T04:37:52.282Z,9.07
2019-02-22T04:42:53.878Z,8.73
2019-02-22T04:47:55.565Z,6.77
2019-02-22T04:52:57.140Z,7.10
2019-02-22T04:57:58.799Z,7.83
2019-02-22T05:03:00.446Z,7.73
2019-02-22T05:08:02.036Z,7.03
2019-02-22T05:13:03.735Z,6.73
2019-02-22T05:18:05.368Z,6.30
2019-02-22T05:23:07.653Z,6.50
2019-02-22T05:28:09.482Z,6.30
2019-02-22T05:33:11.158Z,6.43
2019-02-22T05:38:12.739Z,5.87
2019-02-22T05:43:14.407Z,5.70
2019-02-22T05:48:15.982Z,5.63
2019-02-22T05:53:17.567Z,5.87
2019-02-22T05:58:19.138Z,5.23
2019-02-22T06:03:20.810Z,4.73
2019-02-22T06:08:22.376Z,4.83
2019-02-22T06:13:23.950Z,5.20
2019-02-22T06:18:25.495Z,5.50
2019-02-22T06:23:27.067Z,5.10
2019-02-22T06:28:28.731Z,5.27
2019-02-22T06:33:30.285Z,5.80
2019-02-22T06:38:31.864Z,5.43
2019-02-22T06:43:33.548Z,5.03
2019-02-22T06:48:35.122Z,5.30
2019-02-22T06:53:36.694Z,5.03
2019-02-22T06:58:38.257Z,5.00
2019-02-22T07:03:39.845Z,4.67
2019-02-22T07:08:49.193Z,4.03
2019-02-22T07:13:50.882Z,4.27
2019-02-22T07:18:52.538Z,4.67
2019-02-22T07:23:54.116Z,4.30
2019-02-22T07:28:55.695Z,5.57
2019-02-22T07:33:57.258Z,4.47
2019-02-22T07:38:58.818Z,4.57
2019-02-22T07:44:00.401Z,4.57
2019-02-22T07:49:01.975Z,4.17
2019-02-22T07:54:03.656Z,4.33
2019-02-22T07:59:05.253Z,4.27
2019-02-22T08:04:06.793Z,4.63
2019-02-22T08:09:08.366Z,4.50
2019-02-22T08:14:09.929Z,3.67
2019-02-22T08:19:11.530Z,4.07
2019-02-22T08:24:13.134Z,7.77
2019-02-22T08:29:14.722Z,4.93
2019-02-22T08:34:16.326Z,4.13
2019-02-22T08:44:34.982Z,5.10
2019-02-22T08:49:36.596Z,5.67
2019-02-22T08:54:46.556Z,5.80
2019-02-22T08:59:41.672Z,5.83
2019-02-22T09:04:43.267Z,6.50
2019-02-22T09:09:44.858Z,8.13
2019-02-22T09:14:46.460Z,8.03
2019-02-22T09:19:48.046Z,8.20
2019-02-22T09:24:49.631Z,7.07
2019-02-22T09:29:58.870Z,6.60
2019-02-22T09:34:54.776Z,6.60
2019-02-22T09:39:56.354Z,5.93
2019-02-22T09:44:57.996Z,5.53
2019-02-22T09:49:59.605Z,5.20
2019-02-22T09:55:01.191Z,4.70
2019-02-22T10:00:03.205Z,4.80
2019-02-22T10:05:05.566Z,4.40
2019-02-22T10:10:07.866Z,3.90
2019-02-22T10:15:09.569Z,3.67
2019-02-22T10:20:11.240Z,2.47
2019-02-22T10:25:12.939Z,2.97
2019-02-22T10:30:15.342Z,2.77
2019-02-22T10:35:17.041Z,2.73
2019-02-22T10:40:18.631Z,3.27
2019-02-22T10:45:20.240Z,2.60
2019-02-22T10:50:21.835Z,2.80
2019-02-22T10:55:23.604Z,2.93
2019-02-22T11:00:25.215Z,2.83
2019-02-22T11:05:26.825Z,2.07
2019-02-22T11:10:28.425Z,2.30
2019-02-22T11:15:30.001Z,2.37
2019-02-22T11:20:31.597Z,3.07
2019-02-22T11:25:33.205Z,3.10
2019-02-22T11:30:34.873Z,3.67
2019-02-22T11:35:36.474Z,5.87
2019-02-22T11:40:38.077Z,4.77
2019-02-22T11:45:39.762Z,4.20
2019-02-22T11:50:41.591Z,4.40
2019-02-22T11:55:43.441Z,4.10
2019-02-22T12:00:45.271Z,4.30
2019-02-22T12:05:47.004Z,4.63
2019-02-22T12:10:48.671Z,4.80
2019-02-22T12:15:50.382Z,4.83
2019-02-22T12:20:54.234Z,4.67
2019-02-22T12:25:55.836Z,4.07
2019-02-22T12:30:57.489Z,4.80
2019-02-22T12:35:59.187Z,4.50
2019-02-22T12:41:00.796Z,4.37
2019-02-22T12:46:02.399Z,4.60
2019-02-22T12:51:04.176Z,4.70
2019-02-22T12:56:05.879Z,4.70
2019-02-22T13:01:08.257Z,5.20
2019-02-22T13:06:09.969Z,4.93
2019-02-22T13:11:11.585Z,4.83
2019-02-22T13:16:13.183Z,4.90
2019-02-22T13:21:14.809Z,5.10
2019-02-22T13:26:18.069Z,4.87
2019-02-22T13:31:29.707Z,4.70
2019-02-22T13:36:23.580Z,4.80
2019-02-22T13:41:25.300Z,4.63
2019-02-22T13:46:27.044Z,5.03
2019-02-22T13:51:28.626Z,4.77
2019-02-22T13:56:30.223Z,4.47
2019-02-22T14:01:31.815Z,4.27
2019-02-22T14:06:33.430Z,5.27
2019-02-22T14:11:35.022Z,4.67
2019-02-22T14:16:36.747Z,5.57
2019-02-22T14:21:38.313Z,5.87
2019-02-22T14:26:39.932Z,6.90
2019-02-22T14:31:41.619Z,7.30
2019-02-22T14:36:43.445Z,7.30
2019-02-22T14:41:45.033Z,7.83
2019-02-22T14:46:46.643Z,6.50
2019-02-22T14:51:48.220Z,6.00
2019-02-22T14:56:49.943Z,5.63
2019-02-22T15:01:51.520Z,5.20
2019-02-22T15:06:53.209Z,5.10
2019-02-22T15:11:54.948Z,4.97
2019-02-22T15:17:14.538Z,6.60
2019-02-22T15:22:16.256Z,7.03
2019-02-22T15:27:17.847Z,6.27
2019-02-22T15:32:19.423Z,8.13
2019-02-22T15:37:21.027Z,7.93
2019-02-22T15:42:22.623Z,8.03
2019-02-22T15:47:24.205Z,8.37
2019-02-22T15:52:25.778Z,7.93
2019-02-22T15:57:27.495Z,7.87
2019-02-22T16:02:29.088Z,7.03
2019-02-22T16:07:30.807Z,7.60
2019-02-22T16:12:32.487Z,7.40
2019-02-22T16:17:34.199Z,6.80
2019-02-22T16:22:35.772Z,6.67
2019-02-22T16:27:37.378Z,7.20
2019-02-22T16:32:38.969Z,6.87
2019-02-22T16:37:40.583Z,7.30
2019-02-22T16:42:42.261Z,8.80
2019-02-22T16:47:43.901Z,7.83
2019-02-22T16:52:45.618Z,7.77
2019-02-22T16:57:47.187Z,8.50
2019-02-22T17:02:48.758Z,10.03
2019-02-22T17:07:50.672Z,8.10
2019-02-22T17:12:52.265Z,9.50
2019-02-22T17:17:53.858Z,8.57
2019-02-22T17:22:55.424Z,8.70
2019-02-22T17:27:57.018Z,8.80
2019-02-22T17:32:58.613Z,7.67
2019-02-22T17:38:00.201Z,9.40
2019-02-22T17:43:01.772Z,9.27
2019-02-22T17:48:03.479Z,9.23
2019-02-22T17:53:05.066Z,9.30
2019-02-22T17:58:06.654Z,8.90
2019-02-22T18:03:08.212Z,9.33
2019-02-22T18:08:09.767Z,8.53
2019-02-22T18:13:11.354Z,8.70
2019-02-22T18:18:12.963Z,8.23
2019-02-22T18:23:14.614Z,11.07
2019-02-22T18:28:16.165Z,9.87
2019-02-22T18:33:17.731Z,11.17
2019-02-22T18:38:19.316Z,8.80
2019-02-22T18:43:20.949Z,8.50
2019-02-22T18:48:24.280Z,8.47
2019-02-22T18:53:25.996Z,9.73
2019-02-22T18:58:27.580Z,8.00
2019-02-22T19:03:29.169Z,7.77
2019-02-22T19:08:32.688Z,8.97
2019-02-22T19:13:34.401Z,7.30
2019-02-22T19:18:35.994Z,8.40
2019-02-22T19:23:37.604Z,11.03
2019-02-22T19:28:39.189Z,11.77
2019-02-22T19:33:40.774Z,11.63
2019-02-22T19:38:43.666Z,10.67
2019-02-22T19:43:45.286Z,15.27
2019-02-22T19:48:46.870Z,14.73
2019-02-22T19:53:48.488Z,14.33
2019-02-22T19:58:50.069Z,16.57
2019-02-22T20:03:51.681Z,17.87
2019-02-22T20:08:53.385Z,15.53
2019-02-22T20:13:55.074Z,12.93
2019-02-22T20:18:56.635Z,12.47
2019-02-22T20:23:58.189Z,14.60
2019-02-22T20:28:59.796Z,14.60
2019-02-22T20:34:01.370Z,13.03
2019-02-22T20:39:04.302Z,11.27
2019-02-22T20:44:05.893Z,12.20
2019-02-22T20:49:07.502Z,11.27
2019-02-22T20:54:09.199Z,10.80
2019-02-22T20:59:10.751Z,10.43
2019-02-22T21:04:12.312Z,9.13
2019-02-22T21:09:15.278Z,7.47
2019-02-22T21:14:17.900Z,8.50
2019-02-22T21:19:19.506Z,8.03
2019-02-22T21:24:21.265Z,9.37
2019-02-22T21:29:22.864Z,8.63
2019-02-22T21:34:24.449Z,8.13
2019-02-22T21:39:26.004Z,8.50
2019-02-22T21:44:27.611Z,10.10
2019-02-22T21:49:29.203Z,8.33
2019-02-22T21:54:30.767Z,7.97
2019-02-22T21:59:32.354Z,8.27
2019-02-22T22:04:33.932Z,7.53
2019-02-22T22:09:35.498Z,8.47
2019-02-22T22:14:37.146Z,8.57
2019-02-22T22:19:38.725Z,9.10
2019-02-22T22:24:40.313Z,8.33
2019-02-22T22:29:41.903Z,7.83
2019-02-22T22:34:43.479Z,8.23
2019-02-22T22:39:45.042Z,8.40
2019-02-22T22:44:46.625Z,7.83
2019-02-22T22:49:48.489Z,8.97
2019-02-22T22:54:50.046Z,8.40
2019-02-22T22:59:51.624Z,9.63
2019-02-22T23:04:53.197Z,9.13
2019-02-22T23:09:54.745Z,8.50
2019-02-22T23:14:56.299Z,7.20
2019-02-22T23:19:57.865Z,6.03
2019-02-22T23:24:59.437Z,6.90
2019-02-22T23:30:01.039Z,6.17
2019-02-22T23:35:03.393Z,6.43
2019-02-22T23:40:05.081Z,5.83
2019-02-22T23:45:06.962Z,6.20
2019-02-22T23:50:08.619Z,5.33
2019-02-22T23:55:10.204Z,5.30
